Tiempo atmosférico en la estación meteorológica de Cañamero, Cáceres (590 m.)



Fecha
DESCASC
Temp. máxima en grados centígrados (hora)
DESCASC
Temp. mínima en grados centígrados (hora)
DESCASC
Temp. media en grados centígrados
DESCASC
Racha de viento máxima en m/sg (hora)
DESCASC
Velocidad máxima media en intervalos de 10 minutos(hora)
DESCASC
Precipitaciones diarias en mm
DESCASC
Precipitaciones de 00:00 a 06:00 en mm
DESCASC
Precipitaciones de 06:00 a 12:00 en mm
DESCASC
Precipitaciones de 12:00 a 18:00 en mm
DESCASC
Precipitaciones de 18:00 a 24:00 en mm
DESCASC
18-01-2018 16.4 (16:20) 4.9 (08:50) 10.6 5.83 (12:00) 3.33 (14:00) 0 0 0 0 0
17-01-2018 10.9 (17:30) 4.9 (06:40) 7.9 8.33 (01:40) 4.72 (01:10) 0 0 0 0 0
16-01-2018 10.7 (17:00) 2 (06:40) 6.3 6.39 (23:50) 3.89 (23:50) 0 0 0 0 0
15-01-2018 10 (15:10) 0.7 (08:50) 5.3 5.28 (15:10) 3.33 (16:40) 0 0 0 0 0
14-01-2018 7.5 (16:30) 2.3 (00:00) 4.9 5.28 (16:50) 3.33 (14:30) 0.6 0.4 0.2 0 0
13-01-2018 5.2 (17:50) 2.9 (00:00) 4 6.11 (17:30) 4.44 (17:30) 6.2 0 1.6 4.6 0
12-01-2018 8.9 (14:20) 0.2 (00:00) 4.5 4.72 (09:00) 2.22 (14:40) 0 0 0 0 0
11-01-2018 9 (16:50) 2.9 (00:00) 6 12.5 (13:30) 5 (13:30) 0 0 0 0 0
10-01-2018 9.2 (17:30) 5.3 (00:00) 7.3 13.89 (17:50) 8.61 (17:50) 5.8 1.4 0.2 4.2 0
09-01-2018 5.7 (23:30) 0.5 (00:00) 3.1 4.72 (19:10) 1.67 (18:00) 9.2 0 0 2 7.2
08-01-2018 8.4 (15:50) 1 (00:00) 4.7 5.56 (08:50) 2.78 (10:40) 0.6 0.6 0 0 0
07-01-2018 5.6 (13:50) 2.8 (00:00) 4.2 8.33 (00:50) 4.72 (01:00) 8 0 0.6 3.2 4.2
06-01-2018 7.7 (16:10) 4.3 (00:00) 6 9.17 (19:30) 4.72 (20:40) 1.4 1.4 0 0 0
05-01-2018 10 (00:00) 6.2 (00:00) 8.1 11.11 (15:50) 7.22 (15:50) 14.6 0.2 0 5.4 9
04-01-2018 13.1 (16:30) 8.4 (06:50) 10.8 7.5 (15:20) 5.28 (15:20) 0 0 0 0 0
03-01-2018 13.3 (15:00) 9.5 (00:00) 11.4 5.28 (18:40) 3.61 (19:50) 0 0 0 0 0
02-01-2018 10.6 (15:40) 5.4 (00:00) 8 6.11 (00:10) 3.61 (16:40) 0 0 0 0 0
01-01-2018 8.7 (15:50) 2.3 (00:00) 5.5 8.06 (23:00) 4.72 (18:50) 0.2 0 0 0.2 0
31-12-2017 10.9 (14:50) 5.5 (00:00) 8.2 10.56 (17:40) 6.94 (17:40) 2.2 0 0 2.2 0
30-12-2017 14.5 (15:40) 7.2 (00:00) 10.8 5.28 (14:50) 3.33 (15:10) 0.2 0 0 0.2 0
29-12-2017 13.6 (13:40) 10.7 (00:00) 12.2 8.89 (02:20) 5.56 (10:10) 0.2 0 0.2 0 0
28-12-2017 13.5 (16:40) 6.6 (00:00) 10 10.28 (07:40) 6.94 (07:50) 6.6 5 0.8 0.8 0
27-12-2017 11 (14:40) 7.7 (00:00) 9.3 16.67 (02:10) 10.83 (02:40) 7.2 7.2 0 0 0
26-12-2017 8.2 (02:10) 4.2 (00:00) 6.2 13.33 (23:59) 8.33 (23:59) 8.8 3 0.2 0 5.6
25-12-2017 8.6 (17:20) 4.3 (00:00) 6.5 8.89 (23:10) 5.28 (23:10) 2.8 0 0.2 0.6 2
24-12-2017 14.3 (15:50) 5.9 (00:00) 10.1 5.28 (13:00) 2.5 (05:20) 0 0 0 0 0
23-12-2017 15.1 (16:10) 5.3 (00:00) 10.2 6.67 (11:40) 2.78 (13:40) 0 0 0 0 0
22-12-2017 13 (15:50) 3.3 (00:00) 8.1 3.61 (14:20) 1.94 (14:20) 0 0 0 0 0
21-12-2017 15.4 (16:10) 4 (00:00) 9.7 4.72 (03:20) 2.22 (04:30) 0 0 0 0 0

Gráficas

Temp. máximas Temp. mínimas Temp. medias Precipitaciones Rachas de viento máximas Velocidades máximas media en intervalos de 10 minutos

Datos horarios

Fecha y hora oficial Temperatura (ºC) Velocidad del viento (km/h) Dirección del viento Racha (km/h) Dirección de racha Precipitación (mm) Presión (hPa) Tendencia (hPa) Humedad (%)
2018-01-19 23:00:00 7.4 5 Este 10 Este 0 -- -- 79
2018-01-19 22:00:00 7 0 Calma 5 Sur 0 -- -- 85
2018-01-19 21:00:00 8 2 Sudeste 8 Sudoeste 0 -- -- 82
2018-01-19 20:00:00 9 3 Sudoeste 7 Sudoeste 0 -- -- 76
2018-01-19 19:00:00 10.8 4 Oeste 13 Sudoeste 0 -- -- 67
2018-01-19 18:00:00 13.6 10 Sudoeste 19 Oeste 0 -- -- 58
2018-01-19 17:00:00 14.7 12 Sudoeste 18 Oeste 0 -- -- 60
2018-01-19 16:00:00 14.8 13 Sudoeste 20 Oeste 0 -- -- 51
2018-01-19 15:00:00 14.8 11 Oeste 17 Sudoeste 0 -- -- 59
2018-01-19 14:00:00 14.4 9 Oeste 15 Oeste 0 -- -- 54
2018-01-19 13:00:00 13.9 4 Oeste 8 Sudoeste 0 -- -- 50
2018-01-19 12:00:00 11.3 5 Noroeste 9 Norte 0 -- -- 64
2018-01-19 11:00:00 9.4 4 Norte 10 Noroeste 0 -- -- 71
2018-01-19 10:00:00 6.7 0 Calma 4 Norte 0 -- -- 78
2018-01-19 09:00:00 5.1 4 Noroeste 8 Norte 0 -- -- 82
2018-01-19 08:00:00 5.1 4 Norte 6 Noroeste 0 -- -- 80
2018-01-19 07:00:00 5.5 3 Norte 7 Noroeste 0 -- -- 81
2018-01-19 06:00:00 6.6 3 Este 7 Nordeste 0 -- -- 75
2018-01-19 05:00:00 5.8 3 Este 7 Nordeste 0 -- -- 80
2018-01-19 04:00:00 5.3 4 Nordeste 5 Nordeste 0 -- -- 83
2018-01-19 03:00:00 5.8 0 Calma 8 Sudeste 0 -- -- 80
2018-01-19 02:00:00 6.1 0 Calma 4 Sudeste 0 -- -- 72
2018-01-19 01:00:00 7.2 0 Calma 5 Nordeste 0 -- -- 68
2018-01-19 00:00:00 7.4 2 Norte 9 Este 0 -- -- 67
2018-01-18 23:00:00 8.9 4 Norte 6 Norte 0 -- -- 63
2018-01-18 22:00:00 9 5 Norte 9 Norte 0 -- -- 65
2018-01-18 21:00:00 9.3 3 Este 7 Norte 0 -- -- 64
2018-01-18 20:00:00 10.4 6 Norte 9 Norte 0 -- -- 62
2018-01-18 19:00:00 10.8 3 Nordeste 4 Norte 0 -- -- 61
2018-01-18 18:00:00 15.8 0 Calma 8 Este 0 -- -- 45
2018-01-18 17:00:00 16.4 3 Este 11 Nordeste 0 -- -- 40
2018-01-18 16:00:00 16.1 6 Este 16 Este 0 -- -- 40
2018-01-18 15:00:00 15.7 6 Este 21 Nordeste 0 -- -- 40
2018-01-18 14:00:00 14.4 12 Nordeste 20 Nordeste 0 -- -- 40
2018-01-18 13:00:00 12.4 10 Nordeste 21 Nordeste 0 -- -- 50
2018-01-18 12:00:00 10.6 9 Este 21 Este 0 -- -- 55
2018-01-18 11:00:00 8.9 6 Este 18 Este 0 -- -- 60
2018-01-18 10:00:00 6.3 6 Este 17 Nordeste 0 -- -- 70
2018-01-18 09:00:00 4.9 4 Este 13 Este 0 -- -- 75
2018-01-18 08:00:00 5.3 5 Este 17 Nordeste 0 -- -- 75
2018-01-18 07:00:00 5.4 5 Este 16 Este 0 -- -- 77
2018-01-18 06:00:00 5.7 5 Este 15 Este 0 -- -- 78
2018-01-18 05:00:00 5.3 5 Este 14 Este 0 -- -- 84
2018-01-18 04:00:00 5.8 4 Este 14 Nordeste 0 -- -- 81
2018-01-18 03:00:00 5.8 4 Este 19 Nordeste 0 -- -- 84
2018-01-18 02:00:00 5.7 3 Este 13 Este 0 -- -- 86
2018-01-18 01:00:00 7.3 5 Este 14 Nordeste 0 -- -- 79
2018-01-18 00:00:00 8.4 9 Nordeste 18 Nordeste 0 -- -- 74
2018-01-17 23:00:00 8.5 9 Nordeste 17 Nordeste 0 -- -- 75
2018-01-17 22:00:00 7 4 Nordeste 13 Nordeste 0 -- -- 92
2018-01-17 21:00:00 7.6 7 Este 14 Nordeste 0 -- -- 90
2018-01-17 20:00:00 8.3 7 Este 15 Este 0 -- -- 86
2018-01-17 19:00:00 9.1 7 Nordeste 15 Nordeste 0 -- -- 82
2018-01-17 18:00:00 10.5 6 Nordeste 9 Nordeste 0 -- -- 75
2018-01-17 17:00:00 10.3 5 Nordeste 10 Nordeste 0 -- -- 86
2018-01-17 16:00:00 8.8 5 Este 12 Este 0 -- -- 95
2018-01-17 15:00:00 7.9 5 Sudeste 13 Sudeste 0 -- -- 98
2018-01-17 14:00:00 7.2 3 Este 9 Nordeste 0 -- -- 99
2018-01-17 13:00:00 6.9 3 Este 10 Este 0 -- -- 99
2018-01-17 12:00:00 6.3 4 Nordeste 11 Nordeste 0 -- -- 99
2018-01-17 11:00:00 6.1 3 Este 10 Este 0 -- -- 99
2018-01-17 10:00:00 5.5 0 Calma 16 Sudeste 0 -- -- 99
2018-01-17 09:00:00 5.2 5 Este 15 Este 0 -- -- 98
2018-01-17 08:00:00 5 5 Este 13 Este 0 -- -- 98
2018-01-17 07:00:00 5.1 4 Este 12 Sudeste 0 -- -- 96
2018-01-17 06:00:00 7.9 4 Sur 21 Oeste 0 -- -- 86
2018-01-17 05:00:00 9.2 12 Noroeste 27 Noroeste 0 -- -- 85
2018-01-17 04:00:00 9.6 15 Noroeste 29 Noroeste 0 -- -- 84
2018-01-17 03:00:00 10.3 12 Oeste 27 Oeste 0 -- -- 82
2018-01-17 02:00:00 9.7 9 Noroeste 30 Noroeste 0 -- -- 91
2018-01-17 01:00:00 9 13 Oeste 27 Oeste 0 -- -- 98
2018-01-17 00:00:00 8.9 13 Oeste 23 Oeste 0 -- -- 99
2018-01-16 23:00:00 8.6 12 Oeste 17 Oeste 0 -- -- 99
2018-01-16 22:00:00 8.2 6 Sudoeste 12 Sudoeste 0 -- -- 98
2018-01-16 21:00:00 7.8 4 Oeste 11 Oeste 0 -- -- 97
2018-01-16 20:00:00 7.7 6 Sudoeste 14 Oeste 0 -- -- 95
2018-01-16 19:00:00 8.8 9 Oeste 14 Oeste 0 -- -- 86
2018-01-16 18:00:00 10.2 8 Sudoeste 17 Oeste 0 -- -- 78
2018-01-16 17:00:00 10.7 9 Sudoeste 16 Sudoeste 0 -- -- 74
2018-01-16 16:00:00 10.6 12 Oeste 17 Oeste 0 -- -- 71
2018-01-16 15:00:00 10.1 8 Oeste 14 Sudoeste 0 -- -- 73
2018-01-16 14:00:00 9.3 8 Sudoeste 13 Sudoeste 0 -- -- 73
2018-01-16 13:00:00 9 4 Sur 11 Sudoeste 0 -- -- 73
2018-01-16 12:00:00 7.5 4 Sur 11 Sudoeste 0 -- -- 77
2018-01-16 11:00:00 5.8 6 Sudoeste 12 Sudoeste 0 -- -- 83
2018-01-16 10:00:00 3.7 4 Oeste 10 Sur 0 -- -- 90
2018-01-16 09:00:00 3.1 7 Sudoeste 14 Sudoeste 0 -- -- 91
2018-01-16 08:00:00 2.4 5 Sur 10 Sudeste 0 -- -- 96
2018-01-16 07:00:00 2.1 0 Calma 7 Sudeste 0 -- -- 95
2018-01-16 06:00:00 2.5 0 Calma 17 Oeste 0 -- -- 90
2018-01-16 05:00:00 3.6 10 Oeste 16 Oeste 0 -- -- 89
2018-01-16 04:00:00 3.1 7 Sudoeste 12 Oeste 0 -- -- 92
2018-01-16 03:00:00 4.4 7 Oeste 11 Oeste 0 -- -- 85
2018-01-16 02:00:00 5.1 4 Sudoeste 10 Noroeste 0 -- -- 79
2018-01-16 01:00:00 4.1 6 Oeste 10 Oeste 0 -- -- 85
2018-01-16 00:00:00 3.5 4 Oeste 9 Oeste 0 -- -- 86
2018-01-15 23:00:00 4 2 Sudoeste 8 Noroeste 0 -- -- 86
2018-01-15 22:00:00 4 2 Oeste 10 Oeste 0 -- -- 84
2018-01-15 21:00:00 5.3 6 Oeste 10 Oeste 0 -- -- 81
2018-01-15 20:00:00 5.2 5 Oeste 12 Oeste 0 -- -- 80
2018-01-15 19:00:00 6.1 6 Sudoeste 12 Sudoeste 0 -- -- 77
2018-01-15 18:00:00 8.7 7 Sudoeste 17 Sudoeste 0 -- -- 69
2018-01-15 17:00:00 9.3 11 Oeste 18 Oeste 0 -- -- 64
2018-01-15 16:00:00 9.5 10 Oeste 19 Oeste 0 -- -- 66
2018-01-15 15:00:00 9.9 3 Sudoeste 12 Oeste 0 -- -- 62
2018-01-15 14:00:00 9 9 Oeste 14 Oeste 0 -- -- 66
2018-01-15 13:00:00 8.1 5 Oeste 10 Noroeste 0 -- -- 70
2018-01-15 12:00:00 6.7 6 Oeste 12 Oeste 0 -- -- 73
2018-01-15 11:00:00 5.5 3 Oeste 8 Oeste 0 -- -- 74
2018-01-15 10:00:00 3.1 0 Calma 4 Norte 0 -- -- 79
2018-01-15 09:00:00 1 0 Calma 4 Noroeste 0 -- -- 89
2018-01-15 08:00:00 1.4 0 Calma 7 Nordeste 0 -- -- 85
2018-01-15 07:00:00 2.2 5 Nordeste 9 Nordeste 0 -- -- 82
2018-01-15 06:00:00 1.5 2 Nordeste 5 Norte 0 -- -- 86
2018-01-15 05:00:00 1.5 5 Norte 6 Norte 0 -- -- 85
2018-01-15 04:00:00 1.7 3 Nordeste 9 Nordeste 0 -- -- 86
2018-01-15 03:00:00 2.7 5 Nordeste 11 Nordeste 0 -- -- 82
2018-01-15 02:00:00 2.3 5 Nordeste 10 Nordeste 0 -- -- 86
2018-01-15 01:00:00 2.6 3 Nordeste 12 Nordeste 0 -- -- 85
2018-01-15 00:00:00 4 8 Nordeste 15 Nordeste 0 -- -- 79
2018-01-14 23:00:00 3.5 8 Nordeste 17 Este 0 -- -- 84
2018-01-14 22:00:00 2.9 4 Nordeste 11 Nordeste 0 -- -- 92
2018-01-14 21:00:00 3.6 8 Nordeste 13 Nordeste 0 -- -- 90
2018-01-14 20:00:00 3.6 3 Norte 9 Noroeste 0 -- -- 88
2018-01-14 19:00:00 5.2 3 Norte 9 Noroeste 0 -- -- 88
2018-01-14 18:00:00 5.8 0 Calma 10 Este 0 -- -- 84
2018-01-14 17:00:00 6.6 6 Este 19 Este 0 -- -- 83
2018-01-14 16:00:00 6.4 6 Oeste 10 Oeste 0 -- -- 82
2018-01-14 15:00:00 6.3 7 Oeste 17 Oeste 0 -- -- 90
2018-01-14 14:00:00 5.4 6 Oeste 15 Sudoeste 0 -- -- 100
2018-01-14 13:00:00 4.7 9 Sudoeste 15 Sudoeste 0 -- -- 100
2018-01-14 12:00:00 4.6 5 Oeste 12 Noroeste 0 -- -- 100
2018-01-14 11:00:00 4.3 0 Calma 7 Sur 0 -- -- 100
2018-01-14 10:00:00 3.2 2 Sudoeste 4 Sur 0 -- -- 100
2018-01-14 09:00:00 2.9 0 Calma 5 Sudoeste 0.2 -- -- 100
2018-01-14 08:00:00 3.1 0 Calma 9 Oeste 0 -- -- 100
2018-01-14 07:00:00 3.3 5 Oeste 10 Oeste 0 -- -- 100
2018-01-14 06:00:00 3.6 3 Oeste 12 Sudoeste 0 -- -- 100
2018-01-14 05:00:00 3.4 6 Sudoeste 9 Sudoeste 0 -- -- 100
2018-01-14 04:00:00 3.2 3 Noroeste 8 Sudoeste 0 -- -- 100
2018-01-14 03:00:00 3.1 6 Sudoeste 8 Sur 0 -- -- 100
2018-01-14 02:00:00 3.5 3 Oeste 16 Sudoeste 0 -- -- 100
2018-01-14 01:00:00 4 9 Sudoeste 16 Sudoeste 0.4 -- -- 99
2018-01-14 00:00:00 4.3 7 Sudoeste 13 Sudoeste 0 -- -- 99
2018-01-13 23:00:00 4 5 Sudoeste 9 Sudoeste 0 -- -- 98
2018-01-13 22:00:00 3.5 5 Sudoeste 9 Oeste 0 -- -- 98
2018-01-13 21:00:00 3.5 4 Norte 9 Noroeste 0 -- -- 98
2018-01-13 20:00:00 4.1 8 Norte 14 Noroeste 0 -- -- 99
2018-01-13 19:00:00 4.4 7 Sudoeste 19 Oeste 0 -- -- 99
2018-01-13 18:00:00 5.2 12 Oeste 22 Oeste 0 -- -- 99
2018-01-13 17:00:00 4.9 11 Oeste 15 Oeste 0 -- -- 99
2018-01-13 16:00:00 4.2 3 Noroeste 9 Noroeste 1.2 -- -- 98
2018-01-13 15:00:00 4.3 0 Calma 5 Noroeste 1 -- -- 97
2018-01-13 14:00:00 4.1 2 Nordeste 10 Este 1.4 -- -- 95
2018-01-13 13:00:00 4.5 5 Este 18 Sudeste 1 -- -- 94
2018-01-13 12:00:00 4.8 2 Este 5 Nordeste 0.4 -- -- 94
2018-01-13 11:00:00 3.9 3 Norte 6 Este 1.2 -- -- 93
2018-01-13 10:00:00 3.7 3 Este 7 Sur 0 -- -- 88
2018-01-13 09:00:00 3 3 Este 7 Este 0 -- -- 87
2018-01-13 08:00:00 3.3 2 Este 5 Este 0 -- -- 86
2018-01-13 07:00:00 3.7 2 Este 6 Este 0 -- -- 84
2018-01-13 06:00:00 3.8 4 Este 6 Este 0 -- -- 83
2018-01-13 05:00:00 4 5 Este 11 Este 0 -- -- 82
2018-01-13 04:00:00 4.2 3 Este 10 Nordeste 0 -- -- 82
2018-01-13 03:00:00 4 3 Este 9 Nordeste 0 -- -- 84
2018-01-13 02:00:00 4.2 4 Nordeste 12 Nordeste 0 -- -- 84
2018-01-13 01:00:00 4.5 2 Este 8 Este 0 -- -- 83
2018-01-13 00:00:00 4.3 3 Este 7 Este 0 -- -- 83
2018-01-12 23:00:00 4.3 0 Calma 5 Sudeste 0 -- -- 83
2018-01-12 22:00:00 4.3 3 Este 4 Este 0 -- -- 76
2018-01-12 21:00:00 3.9 0 Calma 2 Este 0 -- -- 82
2018-01-12 20:00:00 4.1 0 Calma 4 Nordeste 0 -- -- 84
2018-01-12 19:00:00 5.9 2 Sudeste 4 Sudeste 0 -- -- 78
2018-01-12 18:00:00 7.4 2 Este 4 Sudeste 0 -- -- 67
2018-01-12 17:00:00 8.6 0 Calma 6 Sudoeste 0 -- -- 59
2018-01-12 16:00:00 8.3 3 Sudoeste 8 Oeste 0 -- -- 60
2018-01-12 15:00:00 7.8 5 Oeste 15 Oeste 0 -- -- 70
2018-01-12 14:00:00 8.2 3 Oeste 12 Oeste 0 -- -- 72
2018-01-12 13:00:00 6.5 6 Noroeste 12 Noroeste 0 -- -- 81
2018-01-12 12:00:00 5.6 4 Oeste 8 Oeste 0 -- -- 79
2018-01-12 11:00:00 4.3 4 Nordeste 10 Sudeste 0 -- -- 82
2018-01-12 10:00:00 2.5 3 Este 14 Nordeste 0 -- -- 89
2018-01-12 09:00:00 1.5 7 Este 17 Este 0 -- -- 92
2018-01-12 08:00:00 0.7 4 Este 9 Este 0 -- -- 93
2018-01-12 07:00:00 0.6 3 Norte 7 Norte 0 -- -- 92
2018-01-12 06:00:00 1.5 4 Este 10 Nordeste 0 -- -- 88
2018-01-12 05:00:00 1.4 2 Este 5 Este 0 -- -- 89
2018-01-12 04:00:00 1.8 0 Calma 7 Nordeste 0 -- -- 87
2018-01-12 03:00:00 1.8 4 Norte 9 Noroeste 0 -- -- 87
2018-01-12 02:00:00 1.9 3 Este 10 Sudoeste 0 -- -- 85
2018-01-12 01:00:00 3.3 0 Calma 11 Norte 0 -- -- 79
2018-01-12 00:00:00 4.4 7 Norte 13 Noroeste 0 -- -- 75
2018-01-11 23:00:00 5.5 6 Noroeste 21 Noroeste 0 -- -- 70
2018-01-11 22:00:00 5.8 8 Noroeste 16 Noroeste 0 -- -- 70
2018-01-11 21:00:00 6.1 7 Noroeste 21 Noroeste 0 -- -- 68
2018-01-11 20:00:00 7.1 8 Noroeste 25 Oeste 0 -- -- 63
2018-01-11 19:00:00 7.3 14 Noroeste 31 Noroeste 0 -- -- 63
2018-01-11 18:00:00 8.4 16 Noroeste 28 Noroeste 0 -- -- 62
2018-01-11 17:00:00 9 14 Noroeste 28 Norte 0 -- -- 57
2018-01-11 16:00:00 8.7 14 Noroeste 33 Oeste 0 -- -- 58
2018-01-11 15:00:00 8.8 12 Noroeste 31 Noroeste 0 -- -- 62
2018-01-11 14:00:00 8.2 16 Noroeste 45 Oeste 0 -- -- 63
2018-01-11 13:00:00 8.2 12 Noroeste 26 Oeste 0 -- -- 70
2018-01-11 12:00:00 5.8 4 Sudoeste 21 Sudoeste 0 -- -- 99
2018-01-11 11:00:00 5.1 11 Sudoeste 24 Sudoeste 0 -- -- 100
2018-01-11 10:00:00 4.8 17 Sudoeste 29 Sudoeste 0 -- -- 100
2018-01-11 09:00:00 4.4 17 Sudoeste 25 Oeste 0 -- -- 100
2018-01-11 08:00:00 3.9 13 Sudoeste 21 Sudoeste 0 -- -- 99
2018-01-11 07:00:00 3.5 10 Sudoeste 19 Sudoeste 0 -- -- 98
2018-01-11 06:00:00 3.5 10 Sudoeste 17 Sudoeste 0 -- -- 95
2018-01-11 05:00:00 3 3 Sur 9 Sur 0 -- -- 95
2018-01-11 04:00:00 3.1 6 Sudoeste 14 Oeste 0 -- -- 94
2018-01-11 03:00:00 3.1 8 Sudoeste 12 Sudoeste 0 -- -- 94
2018-01-11 02:00:00 3.9 3 Oeste 23 Oeste 0 -- -- 90
2018-01-11 01:00:00 5.1 11 Oeste 30 Oeste 0 -- -- 85
2018-01-11 00:00:00 5.6 13 Noroeste 26 Noroeste 0 -- -- 83
2018-01-10 23:00:00 6.2 15 Noroeste 32 Noroeste 0 -- -- 81
2018-01-10 22:00:00 6.9 13 Oeste 33 Oeste 0 -- -- 86
2018-01-10 21:00:00 7.5 15 Oeste 39 Oeste 0 -- -- 87
2018-01-10 20:00:00 7.9 20 Oeste 36 Noroeste 0 -- -- 89
2018-01-10 19:00:00 7.6 16 Oeste 34 Oeste 0 -- -- 95
2018-01-10 18:00:00 9 22 Oeste 50 Sudoeste 0.8 -- -- 100
2018-01-10 17:00:00 9 16 Oeste 37 Sudoeste 1.2 -- -- 100
2018-01-10 16:00:00 8.6 19 Sudoeste 35 Sudoeste 2.2 -- -- 100
2018-01-10 15:00:00 8.2 20 Sudoeste 28 Sudoeste 0 -- -- 100
2018-01-10 14:00:00 7.4 13 Sudoeste 26 Sudoeste 0 -- -- 100
2018-01-10 13:00:00 6.7 16 Oeste 25 Sudoeste 0 -- -- 100
2018-01-10 12:00:00 6 15 Sudoeste 22 Sudoeste 0 -- -- 100
2018-01-10 11:00:00 5.7 14 Oeste 21 Sudoeste 0 -- -- 100
2018-01-10 10:00:00 5.5 15 Oeste 24 Oeste 0.2 -- -- 100
2018-01-10 09:00:00 5.3 10 Sudoeste 14 Sudoeste 0 -- -- 100
2018-01-10 08:00:00 5.4 5 Sudoeste 9 Sur 0 -- -- 100
2018-01-10 07:00:00 6.1 3 Sudoeste 12 Sudoeste 0 -- -- 100
2018-01-10 06:00:00 6.2 5 Noroeste 14 Noroeste 0 -- -- 100
2018-01-10 05:00:00 6.7 6 Oeste 10 Oeste 0 -- -- 100
2018-01-10 04:00:00 6.4 2 Este 5 Sudeste 0 -- -- 100
2018-01-10 03:00:00 6.2 2 Sudeste 5 Nordeste 0.2 -- -- 100
2018-01-10 02:00:00 6 3 Nordeste 10 Este 0.4 -- -- 100
2018-01-10 01:00:00 5.8 5 Nordeste 9 Nordeste 0.8 -- -- 100
2018-01-10 00:00:00 5.7 3 Este 11 Sudeste 0.8 -- -- 100
2018-01-09 23:00:00 5.6 3 Este 10 Sudeste 1 -- -- 100
2018-01-09 22:00:00 5.3 4 Este 10 Sudeste 1.2 -- -- 99
2018-01-09 21:00:00 5 4 Este 12 Este 1.6 -- -- 99
2018-01-09 20:00:00 4.6 4 Este 17 Este 1.4 -- -- 99
2018-01-09 19:00:00 4.3 5 Este 13 Este 1.2 -- -- 98
2018-01-09 18:00:00 4.3 6 Este 15 Sudeste 0.6 -- -- 98
2018-01-09 17:00:00 4.3 3 Este 12 Este 1 -- -- 96
2018-01-09 16:00:00 4.8 5 Sudeste 10 Este 0.4 -- -- 93
2018-01-09 15:00:00 5 3 Sudeste 12 Sudeste 0 -- -- 88
2018-01-09 14:00:00 4.7 3 Sudeste 10 Sudeste 0 -- -- 89
2018-01-09 13:00:00 3.9 3 Sudeste 13 Este 0 -- -- 91
2018-01-09 12:00:00 2.7 3 Este 11 Sudeste 0 -- -- 95
2018-01-09 11:00:00 2.1 4 Este 8 Sudeste 0 -- -- 97
2018-01-09 10:00:00 1.4 2 Este 8 Este 0 -- -- 98
2018-01-09 09:00:00 1.2 3 Este 8 Sudeste 0 -- -- 98
2018-01-09 08:00:00 1.1 0 Calma 4 Nordeste 0 -- -- 98
2018-01-09 07:00:00 1.1 0 Calma 8 Noroeste 0 -- -- 97
2018-01-09 06:00:00 0.8 0 Calma 6 Sudeste 0 -- -- 96
2018-01-09 05:00:00 0.7 2 Este 5 Este 0 -- -- 97
2018-01-09 04:00:00 1.3 3 Este 6 Este 0 -- -- 97
2018-01-09 03:00:00 0.9 0 Calma 5 Sur 0 -- -- 97
2018-01-09 02:00:00 1.1 2 Sur 4 Sur 0 -- -- 94
2018-01-09 01:00:00 1.1 3 Oeste 4 Oeste 0 -- -- 95
2018-01-09 00:00:00 1.5 0 Calma 2 Oeste 0 -- -- 93
2018-01-08 23:00:00 2.2 0 Calma 5 Noroeste 0 -- -- 90
2018-01-08 22:00:00 2.4 0 Calma 7 Oeste 0 -- -- 89
2018-01-08 21:00:00 2.9 3 Nordeste 5 Nordeste 0 -- -- 85
2018-01-08 20:00:00 3.5 4 Norte 12 Este 0 -- -- 81
2018-01-08 19:00:00 5.3 7 Nordeste 12 Nordeste 0 -- -- 74
2018-01-08 18:00:00 7.4 2 Este 7 Noroeste 0 -- -- 67
2018-01-08 17:00:00 8.1 6 Norte 14 Nordeste 0 -- -- 59
2018-01-08 16:00:00 8.2 6 Nordeste 15 Nordeste 0 -- -- 59
2018-01-08 15:00:00 8.1 6 Nordeste 14 Sudeste 0 -- -- 64
2018-01-08 14:00:00 7.6 4 Este 14 Norte 0 -- -- 68
2018-01-08 13:00:00 6.7 6 Nordeste 16 Nordeste 0 -- -- 72
2018-01-08 12:00:00 5.4 5 Nordeste 19 Nordeste 0 -- -- 76
2018-01-08 11:00:00 3.8 9 Nordeste 18 Norte 0 -- -- 83
2018-01-08 10:00:00 1.8 5 Este 19 Este 0 -- -- 95
2018-01-08 09:00:00 1 4 Este 20 Nordeste 0 -- -- 98
2018-01-08 08:00:00 1.3 3 Este 9 Este 0 -- -- 97
2018-01-08 07:00:00 2.4 3 Este 14 Sudeste 0 -- -- 97
2018-01-08 06:00:00 2.6 6 Este 18 Este 0 -- -- 98
2018-01-08 05:00:00 2.8 6 Este 18 Sur 0 -- -- 98
2018-01-08 04:00:00 2.9 7 Este 17 Este 0 -- -- 98
2018-01-08 03:00:00 3.1 5 Este 14 Este 0.4 -- -- 99
2018-01-08 02:00:00 3.1 4 Sudeste 17 Sudeste 0.2 -- -- 99
2018-01-08 01:00:00 3.1 5 Este 15 Este 0 -- -- 99
2018-01-08 00:00:00 3.1 3 Sudeste 12 Sudeste 0.2 -- -- 98
2018-01-07 23:00:00 3.1 5 Sudeste 14 Sudeste 0.8 -- -- 98
2018-01-07 22:00:00 3.3 3 Sudeste 10 Sudeste 1.2 -- -- 98
2018-01-07 21:00:00 3.5 0 Calma 6 Sudoeste 1.2 -- -- 98
2018-01-07 20:00:00 3.6 3 Sudoeste 6 Sudoeste 0.4 -- -- 97
2018-01-07 19:00:00 3.2 0 Calma 6 Sudeste 0.4 -- -- 96
2018-01-07 18:00:00 3.2 0 Calma 6 Sudoeste 1.6 -- -- 94
2018-01-07 17:00:00 4.1 0 Calma 6 Sudeste 1 -- -- 90
2018-01-07 16:00:00 4.6 3 Este 13 Sur 0.4 -- -- 89
2018-01-07 15:00:00 5 4 Sur 11 Sur 0.2 -- -- 88
2018-01-07 14:00:00 5.6 6 Sur 12 Sudoeste 0 -- -- 82
2018-01-07 13:00:00 5.2 4 Sudoeste 12 Sudoeste 0 -- -- 80
2018-01-07 12:00:00 4.6 8 Oeste 16 Oeste 0 -- -- 82
2018-01-07 11:00:00 3.7 8 Oeste 13 Oeste 0 -- -- 87
2018-01-07 10:00:00 2.9 3 Noroeste 8 Norte 0.2 -- -- 91
2018-01-07 09:00:00 3.1 0 Calma 9 Noroeste 0.4 -- -- 87
2018-01-07 08:00:00 3.4 3 Noroeste 15 Noroeste 0 -- -- 82
2018-01-07 07:00:00 3.7 7 Oeste 14 Oeste 0 -- -- 77
2018-01-07 06:00:00 3.6 5 Noroeste 16 Norte 0 -- -- 77
2018-01-07 05:00:00 3.7 11 Norte 17 Norte 0 -- -- 77
2018-01-07 04:00:00 3.8 8 Noroeste 20 Noroeste 0 -- -- 77
2018-01-07 03:00:00 3.7 7 Noroeste 24 Noroeste 0 -- -- 78
2018-01-07 02:00:00 4.1 15 Noroeste 28 Noroeste 0 -- -- 76
2018-01-07 01:00:00 4.2 17 Noroeste 30 Noroeste 0 -- -- 73
2018-01-07 00:00:00 4.4 14 Norte 28 Noroeste 0 -- -- 70
2018-01-06 23:00:00 4.7 10 Noroeste 24 Noroeste 0 -- -- 67
2018-01-06 22:00:00 4.5 12 Noroeste 22 Noroeste 0 -- -- 73
2018-01-06 21:00:00 4.6 14 Norte 32 Noroeste 0 -- -- 77
2018-01-06 20:00:00 4.6 12 Noroeste 33 Noroeste 0 -- -- 76
2018-01-06 19:00:00 5.2 14 Norte 29 Norte 0 -- -- 75
2018-01-06 18:00:00 6.1 12 Noroeste 26 Noroeste 0 -- -- 70
2018-01-06 17:00:00 7.2 15 Noroeste 26 Noroeste 0 -- -- 67
2018-01-06 16:00:00 7.5 13 Noroeste 29 Noroeste 0 -- -- 73
2018-01-06 15:00:00 6.3 14 Noroeste 26 Noroeste 0 -- -- 80
2018-01-06 14:00:00 5.8 12 Noroeste 18 Noroeste 0 -- -- 81
2018-01-06 13:00:00 5.8 9 Noroeste 17 Noroeste 0 -- -- 83
2018-01-06 12:00:00 5.6 8 Noroeste 14 Noroeste 0 -- -- 87
2018-01-06 11:00:00 5 8 Norte 13 Noroeste 0 -- -- 92
2018-01-06 10:00:00 4.9 7 Oeste 11 Oeste 0 -- -- 96
2018-01-06 09:00:00 4.6 5 Noroeste 10 Norte 0 -- -- 93
2018-01-06 08:00:00 4.6 4 Nordeste 10 Nordeste 0 -- -- 99
2018-01-06 07:00:00 5 0 Calma 5 Este 0 -- -- 100
2018-01-06 06:00:00 5.1 0 Calma 6 Sudoeste 0 -- -- 100
2018-01-06 05:00:00 5.2 3 Oeste 9 Sur 0 -- -- 99
2018-01-06 04:00:00 5.3 4 Sur 17 Sudoeste 0 -- -- 98
2018-01-06 03:00:00 5.1 4 Este 15 Norte 0 -- -- 95
2018-01-06 02:00:00 5.4 8 Nordeste 22 Noroeste 0.6 -- -- 98
2018-01-06 01:00:00 5.5 9 Noroeste 18 Noroeste 0.8 -- -- 100
2018-01-06 00:00:00 6.2 5 Noroeste 18 Norte 3.2 -- -- 100
2018-01-05 23:00:00 7.4 9 Sudoeste 16 Sudoeste 0.8 -- -- 100
2018-01-05 22:00:00 7.6 13 Sudoeste 21 Sudoeste 2.4 -- -- 100
2018-01-05 21:00:00 8 11 Sudoeste 22 Sudoeste 0.8 -- -- 100
2018-01-05 20:00:00 8.4 14 Sudoeste 21 Sudoeste 1.2 -- -- 100
2018-01-05 19:00:00 8.3 12 Sudoeste 25 Oeste 0.6 -- -- 100
2018-01-05 18:00:00 8.2 13 Sudoeste 34 Sudoeste 3 -- -- 100
2018-01-05 17:00:00 9.2 12 Sudoeste 29 Sudoeste 0.8 -- -- 100
2018-01-05 16:00:00 9.1 22 Sudoeste 40 Sudoeste 1 -- -- 99
2018-01-05 15:00:00 9 19 Sur 32 Sur 0.2 -- -- 99
2018-01-05 14:00:00 9.2 18 Sudoeste 26 Sudoeste 0.4 -- -- 95
2018-01-05 13:00:00 9.1 14 Sudoeste 24 Sur 0 -- -- 99
2018-01-05 12:00:00 8.7 11 Sur 26 Sur 0 -- -- 100
2018-01-05 11:00:00 8.7 10 Sur 26 Sudoeste 0 -- -- 100
2018-01-05 10:00:00 8.1 15 Sudoeste 24 Sudoeste 0 -- -- 100
2018-01-05 09:00:00 8.1 16 Sudoeste 22 Sudoeste 0 -- -- 100
2018-01-05 08:00:00 8.1 14 Sudoeste 31 Oeste 0 -- -- 100
2018-01-05 07:00:00 8.3 17 Sudoeste 28 Oeste 0 -- -- 100
2018-01-05 06:00:00 8.5 16 Oeste 34 Oeste 0.2 -- -- 100
2018-01-05 05:00:00 8.8 19 Sudoeste 31 Sudoeste 0 -- -- 100
2018-01-05 04:00:00 9.5 18 Oeste 30 Oeste 0 -- -- 100
2018-01-05 03:00:00 9.7 14 Oeste 24 Oeste 0 -- -- 100
2018-01-05 02:00:00 10 15 Oeste 24 Oeste 0 -- -- 100
2018-01-05 01:00:00 10 13 Oeste 21 Sudoeste 0 -- -- 100
2018-01-05 00:00:00 10 12 Sudoeste 18 Oeste 0 -- -- 99
2018-01-04 23:00:00 10.2 10 Oeste 17 Oeste 0 -- -- 99
2018-01-04 22:00:00 10.1 11 Oeste 17 Sudoeste 0 -- -- 98
2018-01-04 21:00:00 10.5 11 Oeste 19 Oeste 0 -- -- 97
2018-01-04 20:00:00 11.1 12 Oeste 24 Sudoeste 0 -- -- 97
2018-01-04 19:00:00 11.6 13 Sudoeste 21 Sudoeste 0 -- -- 95
2018-01-04 18:00:00 12.3 11 Oeste 22 Sudoeste 0 -- -- 89
2018-01-04 17:00:00 12.8 14 Oeste 27 Oeste 0 -- -- 79
2018-01-04 16:00:00 12.7 14 Oeste 27 Oeste 0 -- -- 82
2018-01-04 15:00:00 11.7 16 Sudoeste 22 Sudoeste 0 -- -- 100
2018-01-04 14:00:00 11.1 15 Oeste 23 Sudoeste 0 -- -- 100
2018-01-04 13:00:00 10.6 17 Oeste 23 Sudoeste 0 -- -- 100
2018-01-04 12:00:00 10.5 15 Oeste 21 Sudoeste 0 -- -- 100
2018-01-04 11:00:00 10.3 9 Oeste 19 Oeste 0 -- -- 100
2018-01-04 10:00:00 10.1 10 Sudoeste 18 Oeste 0 -- -- 100
2018-01-04 09:00:00 9.8 7 Oeste 12 Oeste 0 -- -- 100
2018-01-04 08:00:00 9.5 4 Sudoeste 6 Sudoeste 0 -- -- 100
2018-01-04 07:00:00 8.5 2 Oeste 4 Sur 0 -- -- 100
2018-01-04 06:00:00 9.8 3 Noroeste 12 Oeste 0 -- -- 100
2018-01-04 05:00:00 10.2 8 Sudoeste 12 Oeste 0 -- -- 100
2018-01-04 04:00:00 10.5 9 Oeste 12 Oeste 0 -- -- 100
2018-01-04 03:00:00 10.2 6 Oeste 13 Sudoeste 0 -- -- 100
2018-01-04 02:00:00 10.1 9 Sudoeste 13 Sudoeste 0 -- -- 100
2018-01-04 01:00:00 10.5 9 Sudoeste 18 Sudoeste 0 -- -- 99
2018-01-04 00:00:00 10.6 10 Sudoeste 17 Sudoeste 0 -- -- 100
2018-01-03 23:00:00 10.5 6 Sudoeste 12 Oeste 0 -- -- 99
2018-01-03 22:00:00 10.8 6 Oeste 17 Oeste 0 -- -- 99
2018-01-03 21:00:00 10.5 10 Sudoeste 17 Sudoeste 0 -- -- 99
2018-01-03 20:00:00 10.9 11 Sudoeste 19 Sudoeste 0 -- -- 98
2018-01-03 19:00:00 11.6 13 Sudoeste 19 Sudoeste 0 -- -- 97
2018-01-03 18:00:00 13 10 Sudoeste 15 Norte 0 -- -- 89
2018-01-03 17:00:00 13.2 7 Noroeste 12 Sudoeste 0 -- -- 86
2018-01-03 16:00:00 13.1 6 Oeste 13 Sudoeste 0 -- -- 88
2018-01-03 15:00:00 13.3 6 Oeste 16 Sudoeste 0 -- -- 87
2018-01-03 14:00:00 12 11 Sudoeste 18 Sudoeste 0 -- -- 97
2018-01-03 13:00:00 11.6 9 Oeste 14 Sudoeste 0 -- -- 99
2018-01-03 12:00:00 11 9 Oeste 14 Oeste 0 -- -- 100
2018-01-03 11:00:00 10.2 6 Sudoeste 14 Sudoeste 0 -- -- 100
2018-01-03 10:00:00 9.8 7 Sudoeste 12 Oeste 0 -- -- 100
2018-01-03 09:00:00 9.8 3 Oeste 14 Oeste 0 -- -- 100
2018-01-03 08:00:00 9.7 7 Oeste 15 Oeste 0 -- -- 100
2018-01-03 07:00:00 9.7 7 Oeste 12 Oeste 0 -- -- 100
2018-01-03 06:00:00 9.6 5 Sudoeste 12 Oeste 0 -- -- 99
2018-01-03 05:00:00 9.6 7 Noroeste 13 Sudoeste 0 -- -- 99
2018-01-03 04:00:00 9.7 7 Oeste 14 Noroeste 0 -- -- 99
2018-01-03 03:00:00 10.1 9 Noroeste 17 Oeste 0 -- -- 98
2018-01-03 02:00:00 9.9 4 Oeste 10 Sudoeste 0 -- -- 97
2018-01-03 01:00:00 10.4 5 Oeste 12 Oeste 0 -- -- 94
2018-01-03 00:00:00 10.2 5 Oeste 13 Oeste 0 -- -- 95
2018-01-02 23:00:00 10.3 9 Oeste 16 Oeste 0 -- -- 94
2018-01-02 22:00:00 10.3 9 Oeste 16 Oeste 0 -- -- 93
2018-01-02 21:00:00 10 8 Noroeste 21 Oeste 0 -- -- 94
2018-01-02 20:00:00 9.7 12 Oeste 18 Noroeste 0 -- -- 96
2018-01-02 19:00:00 9.5 8 Oeste 15 Oeste 0 -- -- 95
2018-01-02 18:00:00 10 6 Oeste 19 Oeste 0 -- -- 92
2018-01-02 17:00:00 10.2 11 Oeste 19 Sudoeste 0 -- -- 93
2018-01-02 16:00:00 10.5 11 Oeste 16 Sudoeste 0 -- -- 92
2018-01-02 15:00:00 9.1 10 Sudoeste 16 Sudoeste 0 -- -- 99
2018-01-02 14:00:00 7.9 12 Oeste 15 Sudoeste 0 -- -- 99
2018-01-02 13:00:00 7 8 Sudoeste 14 Sudoeste 0 -- -- 98
2018-01-02 12:00:00 7 11 Sudoeste 17 Oeste 0 -- -- 94
2018-01-02 11:00:00 7.5 8 Oeste 13 Oeste 0 -- -- 99
2018-01-02 10:00:00 6.8 9 Norte 17 Norte 0 -- -- 100
2018-01-02 09:00:00 6 5 Noroeste 10 Sudoeste 0 -- -- 99
2018-01-02 08:00:00 5.8 2 Sur 18 Sudoeste 0 -- -- 98
2018-01-02 07:00:00 5.4 6 Sur 10 Sudoeste 0 -- -- 97
2018-01-02 06:00:00 6.2 4 Sudeste 12 Sudoeste 0 -- -- 93
2018-01-02 05:00:00 6.4 8 Sudoeste 18 Oeste 0 -- -- 93
2018-01-02 04:00:00 6.9 3 Oeste 13 Oeste 0 -- -- 91
2018-01-02 03:00:00 7 8 Oeste 16 Oeste 0 -- -- 93
2018-01-02 02:00:00 7.1 9 Oeste 20 Oeste 0 -- -- 95
2018-01-02 01:00:00 7.9 10 Oeste 22 Oeste 0 -- -- 92
2018-01-02 00:00:00 8.4 13 Oeste 24 Oeste 0 -- -- 91
2018-01-01 23:00:00 8.5 14 Oeste 29 Oeste 0 -- -- 91
2018-01-01 22:00:00 7.9 13 Oeste 20 Oeste 0 -- -- 96
2018-01-01 21:00:00 7.4 11 Oeste 17 Oeste 0 -- -- 97
2018-01-01 20:00:00 7.6 9 Oeste 23 Oeste 0 -- -- 96
2018-01-01 19:00:00 7.9 14 Oeste 24 Oeste 0 -- -- 94
2018-01-01 18:00:00 8.2 9 Oeste 21 Sudoeste 0 -- -- 92
2018-01-01 17:00:00 8.4 14 Oeste 23 Sudoeste 0 -- -- 90
2018-01-01 16:00:00 8.4 13 Sudoeste 24 Oeste 0 -- -- 90
2018-01-01 15:00:00 8.5 16 Oeste 23 Oeste 0 -- -- 90
2018-01-01 14:00:00 7.1 13 Sudoeste 20 Sudoeste 0.2 -- -- 97
2018-01-01 13:00:00 6.1 11 Sudoeste 16 Sudoeste 0 -- -- 95
2018-01-01 12:00:00 6.8 10 Sudoeste 17 Oeste 0 -- -- 92
2018-01-01 11:00:00 5.3 4 Sudoeste 7 Oeste 0 -- -- 99
2018-01-01 10:00:00 3.8 4 Oeste 7 Oeste 0 -- -- 97
2018-01-01 09:00:00 2.5 0 Calma 8 Norte 0 -- -- 93
2018-01-01 08:00:00 3.6 4 Norte 7 Noroeste 0 -- -- 92
2018-01-01 07:00:00 3.6 6 Oeste 11 Sudoeste 0 -- -- 94
2018-01-01 06:00:00 4.6 8 Oeste 13 Oeste 0 -- -- 86
2018-01-01 05:00:00 5.2 6 Noroeste 12 Noroeste 0 -- -- 85
2018-01-01 04:00:00 5.1 5 Noroeste 10 Noroeste 0 -- -- 88
2018-01-01 03:00:00 3.6 6 Noroeste 9 Norte 0 -- -- 94
2018-01-01 02:00:00 4.2 3 Norte 4 Norte 0 -- -- 95
2018-01-01 01:00:00 4.8 0 Calma 11 Noroeste 0 -- -- 91
2018-01-01 00:00:00 5.7 6 Noroeste 12 Noroeste 0 -- -- 90
2017-12-31 23:00:00 6.2 2 Nordeste 9 Noroeste 0 -- -- 86
2017-12-31 22:00:00 8.1 4 Oeste 19 Noroeste 0 -- -- 82
2017-12-31 21:00:00 8.8 11 Oeste 26 Oeste 0 -- -- 83
2017-12-31 20:00:00 9.2 14 Oeste 28 Oeste 0 -- -- 84
2017-12-31 19:00:00 9.3 13 Noroeste 38 Oeste 0 -- -- 87
2017-12-31 18:00:00 10 23 Oeste 38 Oeste 1.2 -- -- 98
2017-12-31 17:00:00 10.2 15 Oeste 27 Sudoeste 0.6 -- -- 96
2017-12-31 16:00:00 10 16 Oeste 26 Sudoeste 0.4 -- -- 95
2017-12-31 15:00:00 10.8 17 Sudoeste 28 Sudoeste 0 -- -- 88
2017-12-31 14:00:00 9.5 14 Oeste 20 Oeste 0 -- -- 96
2017-12-31 13:00:00 9 10 Oeste 17 Oeste 0 -- -- 97
2017-12-31 12:00:00 8.9 12 Sudoeste 17 Sudoeste 0 -- -- 99
2017-12-31 11:00:00 8.2 6 Oeste 11 Sudoeste 0 -- -- 99
2017-12-31 10:00:00 7.6 3 Sur 6 Sudoeste 0 -- -- 99
2017-12-31 09:00:00 7.4 4 Oeste 9 Oeste 0 -- -- 98
2017-12-31 08:00:00 7.3 3 Sudoeste 6 Oeste 0 -- -- 98
2017-12-31 07:00:00 6.4 0 Calma 7 Nordeste 0 -- -- 96
2017-12-31 06:00:00 7.8 3 Este 6 Este 0 -- -- 97
2017-12-31 05:00:00 8.1 0 Calma 4 Sudeste 0 -- -- 97
2017-12-31 04:00:00 8.1 2 Sur 4 Oeste 0 -- -- 98
2017-12-31 03:00:00 7.4 0 Calma 5 Este 0 -- -- 97
2017-12-31 02:00:00 7.8 4 Este 6 Este 0 -- -- 97
2017-12-31 01:00:00 7.4 0 Calma 3 Nordeste 0 -- -- 97